createdAt,value
2018-12-08T00:00:08.437Z,6.10
2018-12-08T00:02:37.269Z,6.10
2018-12-08T00:05:06.308Z,6.00
2018-12-08T00:07:34.675Z,6.00
2018-12-08T00:10:03.516Z,6.00
2018-12-08T00:12:31.875Z,6.00
2018-12-08T00:15:00.713Z,6.00
2018-12-08T00:17:29.092Z,5.90
2018-12-08T00:19:57.464Z,5.80
2018-12-08T00:22:25.841Z,5.80
2018-12-08T00:24:54.223Z,5.80
2018-12-08T00:27:22.615Z,5.80
2018-12-08T00:29:50.981Z,5.80
2018-12-08T00:32:19.367Z,5.70
2018-12-08T00:34:47.727Z,5.70
2018-12-08T00:37:16.109Z,5.70
2018-12-08T00:39:44.465Z,5.70
2018-12-08T00:42:12.853Z,5.70
2018-12-08T00:44:41.550Z,5.70
2018-12-08T00:47:09.912Z,5.80
2018-12-08T00:49:38.558Z,5.80
2018-12-08T00:52:07.276Z,5.70
2018-12-08T00:54:35.659Z,5.70
2018-12-08T00:57:04.072Z,5.60
2018-12-08T00:59:32.453Z,5.60
2018-12-08T01:02:00.821Z,5.60
2018-12-08T01:04:29.211Z,5.70
2018-12-08T01:06:57.598Z,5.70
2018-12-08T01:09:26.224Z,5.70
2018-12-08T01:11:54.668Z,5.70
2018-12-08T01:14:23.027Z,5.70
2018-12-08T01:16:51.668Z,5.70
2018-12-08T01:19:20.065Z,5.70
2018-12-08T01:21:48.435Z,5.70
2018-12-08T01:24:16.879Z,5.70
2018-12-08T01:26:45.262Z,5.70
2018-12-08T01:29:13.616Z,5.70
2018-12-08T01:31:42.116Z,5.70
2018-12-08T01:34:10.494Z,5.70
2018-12-08T01:36:38.857Z,5.80
2018-12-08T01:39:08.036Z,5.70
2018-12-08T01:41:36.431Z,5.80
2018-12-08T01:44:05.245Z,5.70
2018-12-08T01:46:33.639Z,5.80
2018-12-08T01:49:02.018Z,5.70
2018-12-08T01:51:31.364Z,5.80
2018-12-08T01:54:00.328Z,5.80
2018-12-08T01:56:28.711Z,5.80
2018-12-08T01:58:57.100Z,5.80
2018-12-08T02:01:25.501Z,5.80
2018-12-08T02:03:54.350Z,5.80
2018-12-08T02:06:22.747Z,5.80
2018-12-08T02:08:51.162Z,5.90
2018-12-08T02:11:24.853Z,5.90
2018-12-08T02:13:49.963Z,5.90
2018-12-08T02:16:18.357Z,5.90
2018-12-08T02:18:46.779Z,5.90
2018-12-08T02:21:15.167Z,5.90
2018-12-08T02:23:43.590Z,5.90
2018-12-08T02:26:11.986Z,5.80
2018-12-08T02:28:40.366Z,5.80
2018-12-08T02:31:08.806Z,5.80
2018-12-08T02:33:37.195Z,5.80
2018-12-08T02:36:05.576Z,5.80
2018-12-08T02:38:33.997Z,5.80
2018-12-08T02:41:02.379Z,5.80
2018-12-08T02:43:30.771Z,5.80
2018-12-08T02:45:59.165Z,5.80
2018-12-08T02:48:27.552Z,5.90
2018-12-08T02:50:55.936Z,5.80
2018-12-08T02:53:24.352Z,5.90
2018-12-08T02:55:52.749Z,5.80
2018-12-08T02:58:21.134Z,5.80
2018-12-08T03:00:49.585Z,5.90
2018-12-08T03:03:18.002Z,5.90
2018-12-08T03:05:46.385Z,5.90
2018-12-08T03:08:14.855Z,6.00
2018-12-08T03:10:43.243Z,5.90
2018-12-08T03:13:11.604Z,6.00
2018-12-08T03:15:39.990Z,6.00
2018-12-08T03:18:08.379Z,6.00
2018-12-08T03:20:36.779Z,6.00
2018-12-08T03:23:05.128Z,6.00
2018-12-08T03:25:33.859Z,6.00
2018-12-08T03:28:02.237Z,6.00
2018-12-08T03:30:30.622Z,6.00
2018-12-08T03:32:59.249Z,6.00
2018-12-08T03:35:27.884Z,6.00
2018-12-08T03:37:56.227Z,6.00
2018-12-08T03:40:24.950Z,6.00
2018-12-08T03:42:54.426Z,6.00
2018-12-08T03:45:22.796Z,6.00
2018-12-08T03:47:51.213Z,6.10
2018-12-08T03:50:19.773Z,6.00
2018-12-08T03:52:48.145Z,6.10
2018-12-08T03:55:16.511Z,6.10
2018-12-08T03:57:44.897Z,6.00
2018-12-08T04:00:13.745Z,6.00
2018-12-08T04:02:42.236Z,6.10
2018-12-08T04:05:10.655Z,6.10
2018-12-08T04:07:39.038Z,6.10
2018-12-08T04:10:07.880Z,6.10
2018-12-08T04:12:36.276Z,6.10
2018-12-08T04:15:06.317Z,6.00
2018-12-08T04:17:34.708Z,6.00
2018-12-08T04:20:03.551Z,5.90
2018-12-08T04:22:31.915Z,6.00
2018-12-08T04:25:00.274Z,5.90
2018-12-08T04:27:31.726Z,6.00
2018-12-08T04:30:00.119Z,5.90
2018-12-08T04:32:28.533Z,6.00
2018-12-08T04:34:56.911Z,6.00
2018-12-08T04:37:25.307Z,6.00
2018-12-08T04:39:53.704Z,6.00
2018-12-08T04:42:22.061Z,5.90
2018-12-08T04:44:50.449Z,6.00
2018-12-08T04:47:18.823Z,6.00
2018-12-08T04:49:47.193Z,6.00
2018-12-08T04:52:15.565Z,6.00
2018-12-08T04:54:43.943Z,6.00
2018-12-08T04:57:12.293Z,6.00
2018-12-08T04:59:40.672Z,6.10
2018-12-08T05:02:09.052Z,6.00
2018-12-08T05:04:37.429Z,6.00
2018-12-08T05:07:05.780Z,6.10
2018-12-08T05:09:34.164Z,6.10
2018-12-08T05:12:02.573Z,6.10
2018-12-08T05:14:30.986Z,6.10
2018-12-08T05:16:59.343Z,6.20
2018-12-08T05:19:27.764Z,6.20
2018-12-08T05:21:56.136Z,6.20
2018-12-08T05:24:26.184Z,6.20
2018-12-08T05:26:54.618Z,6.10
2018-12-08T05:29:23.011Z,6.00
2018-12-08T05:31:51.397Z,5.80
2018-12-08T05:34:19.760Z,5.80
2018-12-08T05:36:48.122Z,5.70
2018-12-08T05:39:16.480Z,5.80
2018-12-08T05:41:44.851Z,5.80
2018-12-08T05:44:13.200Z,5.70
2018-12-08T05:46:41.568Z,5.80
2018-12-08T05:49:09.945Z,5.80
2018-12-08T05:51:38.308Z,5.80
2018-12-08T05:54:06.680Z,5.80
2018-12-08T05:56:35.051Z,5.80
2018-12-08T05:59:03.848Z,5.80
2018-12-08T06:01:33.952Z,5.80
2018-12-08T06:04:02.300Z,5.80
2018-12-08T06:06:30.650Z,5.80
2018-12-08T06:08:59.024Z,5.80
2018-12-08T06:11:27.399Z,5.80
2018-12-08T06:13:55.776Z,5.80
2018-12-08T06:16:24.141Z,5.80
2018-12-08T06:18:52.672Z,5.80
2018-12-08T06:21:35.285Z,5.70
2018-12-08T06:24:04.559Z,5.80
2018-12-08T06:26:38.288Z,5.70
2018-12-08T06:29:06.659Z,5.70
2018-12-08T06:31:35.030Z,5.80
2018-12-08T06:34:03.403Z,5.80
2018-12-08T06:36:31.775Z,5.80
2018-12-08T06:39:00.144Z,5.80
2018-12-08T06:41:28.556Z,5.80
2018-12-08T06:43:56.944Z,5.80
2018-12-08T06:46:25.382Z,5.80
2018-12-08T06:48:53.824Z,5.80
2018-12-08T06:51:22.254Z,5.80
2018-12-08T06:53:50.817Z,5.70
2018-12-08T06:56:19.650Z,5.80
2018-12-08T06:58:48.013Z,5.80
2018-12-08T07:01:16.394Z,5.70
2018-12-08T07:03:44.772Z,5.70
2018-12-08T07:06:13.150Z,5.70
2018-12-08T07:08:41.498Z,5.70
2018-12-08T07:11:09.855Z,5.60
2018-12-08T07:13:38.218Z,5.60
2018-12-08T07:16:06.603Z,5.60
2018-12-08T07:18:34.972Z,5.70
2018-12-08T07:21:03.357Z,5.60
2018-12-08T07:23:31.728Z,5.60
2018-12-08T07:26:00.103Z,5.60
2018-12-08T07:28:28.455Z,5.70
2018-12-08T07:30:56.832Z,5.70
2018-12-08T07:33:25.195Z,5.80
2018-12-08T07:35:53.559Z,5.80
2018-12-08T07:38:21.900Z,5.80
2018-12-08T07:40:50.281Z,5.90
2018-12-08T07:43:18.632Z,5.90
2018-12-08T07:45:47.016Z,5.90
2018-12-08T07:48:15.376Z,6.00
2018-12-08T07:50:44.091Z,6.00
2018-12-08T07:53:12.436Z,6.10
2018-12-08T07:55:40.795Z,6.10
2018-12-08T07:58:09.615Z,6.10
2018-12-08T08:00:37.983Z,6.20
2018-12-08T08:03:06.351Z,6.20
2018-12-08T08:05:34.708Z,6.20
2018-12-08T08:08:03.103Z,6.30
2018-12-08T08:10:31.484Z,6.20
2018-12-08T08:12:59.862Z,6.30
2018-12-08T08:15:28.231Z,6.30
2018-12-08T08:17:56.600Z,6.30
2018-12-08T08:20:24.968Z,6.30
2018-12-08T08:22:53.353Z,6.30
2018-12-08T08:25:21.708Z,6.30
2018-12-08T08:27:50.092Z,6.30
2018-12-08T08:30:19.336Z,6.30
2018-12-08T08:32:47.730Z,6.30
2018-12-08T08:35:16.101Z,6.30
2018-12-08T08:37:44.456Z,6.30
2018-12-08T08:40:12.828Z,6.30
2018-12-08T08:42:41.180Z,6.30
2018-12-08T08:45:10.456Z,6.20
2018-12-08T08:47:38.813Z,6.20
2018-12-08T08:50:10.018Z,6.20
2018-12-08T08:52:38.368Z,6.20
2018-12-08T08:55:07.964Z,6.20
2018-12-08T08:57:36.314Z,6.30
2018-12-08T09:00:07.564Z,6.30
2018-12-08T09:02:35.916Z,6.40
2018-12-08T09:05:05.937Z,6.40
2018-12-08T09:07:34.735Z,6.50
2018-12-08T09:10:04.340Z,6.40
2018-12-08T09:12:32.699Z,6.50
2018-12-08T09:15:01.084Z,6.50
2018-12-08T09:17:29.436Z,6.60
2018-12-08T09:19:57.816Z,6.60
2018-12-08T09:22:26.183Z,6.60
2018-12-08T09:24:54.565Z,6.60
2018-12-08T09:27:22.936Z,6.70
2018-12-08T09:29:51.317Z,6.70
2018-12-08T09:32:19.719Z,6.70
2018-12-08T09:34:48.256Z,6.70
2018-12-08T09:37:16.623Z,6.70
2018-12-08T09:39:44.992Z,6.70
2018-12-08T09:42:13.387Z,6.80
2018-12-08T09:44:41.747Z,6.80
2018-12-08T09:47:10.125Z,6.90
2018-12-08T09:49:38.584Z,7.00
2018-12-08T09:52:06.992Z,7.10
2018-12-08T09:54:35.374Z,7.10
2018-12-08T09:57:03.772Z,7.10
2018-12-08T09:59:32.181Z,7.20
2018-12-08T10:02:00.549Z,7.20
2018-12-08T10:04:28.914Z,7.20
2018-12-08T10:06:57.296Z,7.30
2018-12-08T10:09:25.667Z,7.30
2018-12-08T10:11:54.060Z,7.20
2018-12-08T10:14:22.418Z,7.20
2018-12-08T10:16:50.796Z,7.20
2018-12-08T10:19:19.241Z,7.30
2018-12-08T10:21:47.613Z,7.30
2018-12-08T10:24:15.985Z,7.30
2018-12-08T10:26:44.332Z,7.40
2018-12-08T10:29:12.716Z,7.40
2018-12-08T10:31:41.096Z,7.40
2018-12-08T10:34:10.247Z,7.40
2018-12-08T10:36:38.609Z,7.40
2018-12-08T10:39:09.146Z,7.40
2018-12-08T10:41:37.699Z,7.40
2018-12-08T10:44:06.067Z,7.50
2018-12-08T10:46:34.544Z,7.60
2018-12-08T10:49:02.900Z,7.60
2018-12-08T10:51:31.671Z,7.60
2018-12-08T10:54:00.304Z,7.60
2018-12-08T10:56:29.173Z,7.50
2018-12-08T10:58:57.571Z,7.50
2018-12-08T11:01:30.301Z,7.60
2018-12-08T11:03:58.796Z,7.50
2018-12-08T11:06:27.299Z,7.50
2018-12-08T11:08:55.771Z,7.50
2018-12-08T11:11:24.264Z,7.60
2018-12-08T11:13:52.785Z,7.60
2018-12-08T11:16:21.193Z,7.60
2018-12-08T11:18:49.564Z,7.70
2018-12-08T11:21:17.952Z,7.60
2018-12-08T11:23:46.316Z,7.60
2018-12-08T11:26:14.684Z,7.60
2018-12-08T11:28:43.057Z,7.70
2018-12-08T11:31:11.456Z,7.70
2018-12-08T11:33:39.856Z,7.80
2018-12-08T11:36:08.690Z,7.80
2018-12-08T11:38:37.232Z,7.70
2018-12-08T11:41:05.686Z,7.90
2018-12-08T11:43:34.483Z,7.90
2018-12-08T11:46:02.856Z,7.90
2018-12-08T11:48:31.268Z,8.10
2018-12-08T11:50:59.639Z,8.10
2018-12-08T11:53:28.004Z,8.10
2018-12-08T11:55:56.688Z,8.20
2018-12-08T11:58:25.048Z,8.20
2018-12-08T12:00:53.423Z,8.20
2018-12-08T12:03:22.256Z,8.30
2018-12-08T12:05:50.649Z,8.20
2018-12-08T12:08:19.257Z,8.30
2018-12-08T12:10:47.611Z,8.30
2018-12-08T12:13:15.994Z,8.30
2018-12-08T12:15:44.343Z,8.30
2018-12-08T12:18:12.772Z,8.40
2018-12-08T12:20:41.128Z,8.40
2018-12-08T12:23:09.499Z,8.40
2018-12-08T12:25:38.208Z,8.40
2018-12-08T12:28:07.156Z,8.40
2018-12-08T12:30:36.117Z,8.40
2018-12-08T12:33:04.513Z,8.40
2018-12-08T12:35:32.907Z,8.50
2018-12-08T12:38:01.258Z,8.50
2018-12-08T12:40:29.641Z,8.50
2018-12-08T12:42:58.004Z,8.60
2018-12-08T12:45:26.385Z,8.60
2018-12-08T12:47:55.189Z,8.60
2018-12-08T12:50:23.557Z,8.60
2018-12-08T12:52:51.930Z,8.60
2018-12-08T12:55:20.295Z,8.60
2018-12-08T12:57:48.656Z,8.60
2018-12-08T13:00:17.047Z,8.60
2018-12-08T13:02:45.461Z,8.70
2018-12-08T13:05:13.837Z,8.70
2018-12-08T13:07:42.204Z,8.70
2018-12-08T13:10:10.692Z,8.70
2018-12-08T13:12:39.576Z,8.70
2018-12-08T13:15:07.951Z,8.70
2018-12-08T13:17:36.320Z,8.70
2018-12-08T13:20:05.453Z,8.70
2018-12-08T13:22:33.858Z,8.70
2018-12-08T13:25:13.507Z,8.70
2018-12-08T13:27:41.891Z,8.70
2018-12-08T13:30:10.604Z,8.70
2018-12-08T13:32:38.992Z,8.70
2018-12-08T13:35:08.446Z,8.80
2018-12-08T13:37:36.804Z,8.90
2018-12-08T13:40:05.219Z,8.90
2018-12-08T13:42:33.884Z,8.90
2018-12-08T13:45:18.594Z,8.90
2018-12-08T13:47:46.981Z,8.90
2018-12-08T13:50:15.336Z,8.90
2018-12-08T13:52:43.719Z,8.90
2018-12-08T13:55:13.067Z,8.90
2018-12-08T13:57:41.436Z,8.90
2018-12-08T14:00:10.468Z,8.90
2018-12-08T14:02:38.855Z,8.90
2018-12-08T14:05:08.805Z,8.90
2018-12-08T14:07:37.425Z,8.90
2018-12-08T14:10:07.421Z,9.00
2018-12-08T14:12:36.312Z,9.00
2018-12-08T14:15:05.563Z,9.00
2018-12-08T14:17:34.356Z,9.00
2018-12-08T14:20:19.947Z,9.00
2018-12-08T14:22:48.785Z,9.00
2018-12-08T14:25:17.140Z,9.10
2018-12-08T14:27:46.212Z,9.00
2018-12-08T14:30:15.012Z,9.00
2018-12-08T14:32:43.399Z,9.00
2018-12-08T14:35:12.757Z,9.00
2018-12-08T14:37:41.151Z,8.90
2018-12-08T14:40:10.267Z,9.00
2018-12-08T14:42:38.639Z,9.00
2018-12-08T14:45:10.195Z,9.10
2018-12-08T14:47:39.461Z,9.10
2018-12-08T14:50:10.360Z,9.10
2018-12-08T14:52:39.647Z,9.10
2018-12-08T14:55:10.228Z,9.00
2018-12-08T14:57:39.096Z,9.00
2018-12-08T15:00:10.789Z,9.00
2018-12-08T15:02:39.637Z,9.00
2018-12-08T15:05:10.655Z,9.00
2018-12-08T15:07:39.492Z,8.90
2018-12-08T15:10:10.491Z,8.90
2018-12-08T15:12:38.873Z,8.90
2018-12-08T15:15:09.520Z,8.90
2018-12-08T15:17:38.362Z,8.90
2018-12-08T15:20:08.990Z,9.00
2018-12-08T15:22:37.671Z,8.90
2018-12-08T15:25:08.762Z,8.90
2018-12-08T15:27:38.032Z,8.90
2018-12-08T15:30:08.975Z,9.00
2018-12-08T15:32:37.360Z,8.90
2018-12-08T15:35:08.484Z,9.00
2018-12-08T15:37:37.344Z,9.00
2018-12-08T15:40:07.237Z,8.90
2018-12-08T15:42:35.647Z,9.00
2018-12-08T15:45:05.864Z,8.90
2018-12-08T15:47:34.312Z,8.90
2018-12-08T15:50:02.684Z,8.90
2018-12-08T15:52:31.163Z,8.90
2018-12-08T15:54:59.532Z,8.90
2018-12-08T15:57:27.876Z,8.90
2018-12-08T15:59:56.267Z,8.90
2018-12-08T16:02:24.733Z,8.90
2018-12-08T16:04:53.113Z,8.90
2018-12-08T16:07:21.938Z,8.90
2018-12-08T16:09:50.302Z,8.80
2018-12-08T16:12:18.674Z,8.70
2018-12-08T16:14:47.048Z,8.70
2018-12-08T16:17:15.429Z,8.50
2018-12-08T16:19:43.811Z,8.40
2018-12-08T16:22:12.197Z,8.40
2018-12-08T16:24:41.018Z,8.30
2018-12-08T16:27:09.446Z,8.30
2018-12-08T16:29:37.822Z,8.20
2018-12-08T16:32:06.190Z,8.20
2018-12-08T16:34:34.564Z,8.10
2018-12-08T16:37:03.138Z,8.10
2018-12-08T16:39:31.786Z,8.10
2018-12-08T16:42:00.191Z,8.00
2018-12-08T16:44:28.599Z,8.00
2018-12-08T16:46:57.007Z,8.00
2018-12-08T16:49:25.375Z,8.00
2018-12-08T16:51:54.151Z,7.90
2018-12-08T16:54:22.548Z,7.90
2018-12-08T16:56:51.367Z,7.90
2018-12-08T16:59:19.751Z,7.90
2018-12-08T17:01:53.262Z,7.90
2018-12-08T17:04:22.685Z,7.90
2018-12-08T17:06:51.549Z,7.90
2018-12-08T17:09:19.908Z,8.00
2018-12-08T17:11:48.727Z,8.00
2018-12-08T17:14:17.075Z,8.00
2018-12-08T17:16:45.612Z,8.00
2018-12-08T17:19:13.969Z,8.00
2018-12-08T17:21:42.771Z,8.00
2018-12-08T17:24:11.152Z,8.00
2018-12-08T17:26:39.972Z,8.10
2018-12-08T17:29:08.332Z,8.10
2018-12-08T17:31:36.691Z,8.10
2018-12-08T17:34:05.169Z,8.10
2018-12-08T17:36:33.519Z,8.20
2018-12-08T17:39:01.914Z,8.20
2018-12-08T17:41:30.312Z,8.30
2018-12-08T17:43:58.695Z,8.30
2018-12-08T17:46:27.056Z,8.20
2018-12-08T17:48:56.206Z,8.20
2018-12-08T17:51:24.842Z,8.20
2018-12-08T17:53:53.220Z,8.20
2018-12-08T17:56:21.615Z,8.10
2018-12-08T17:58:49.987Z,8.10
2018-12-08T18:01:18.729Z,8.10
2018-12-08T18:03:47.142Z,8.20
2018-12-08T18:06:15.541Z,8.20
2018-12-08T18:08:44.065Z,8.20
2018-12-08T18:11:12.480Z,8.20
2018-12-08T18:13:40.829Z,8.20
2018-12-08T18:16:09.224Z,8.10
2018-12-08T18:18:37.623Z,8.20
2018-12-08T18:21:06.124Z,8.20
2018-12-08T18:23:34.920Z,8.20
2018-12-08T18:26:03.302Z,8.20
2018-12-08T18:28:31.686Z,8.20
2018-12-08T18:31:00.075Z,8.20
2018-12-08T18:33:28.440Z,8.20
2018-12-08T18:35:57.314Z,8.20
2018-12-08T18:38:25.869Z,8.30
2018-12-08T18:40:54.343Z,8.30
2018-12-08T18:43:23.033Z,8.40
2018-12-08T18:45:51.396Z,8.40
2018-12-08T18:48:19.771Z,8.40
2018-12-08T18:50:48.122Z,8.40
2018-12-08T18:53:16.509Z,8.40
2018-12-08T18:55:44.902Z,8.50
2018-12-08T18:58:13.263Z,8.50
2018-12-08T19:00:42.071Z,8.60
2018-12-08T19:03:10.445Z,8.60
2018-12-08T19:05:38.815Z,8.50
2018-12-08T19:08:07.206Z,8.60
2018-12-08T19:10:35.582Z,8.60
2018-12-08T19:13:04.384Z,8.60
2018-12-08T19:15:32.784Z,8.60
2018-12-08T19:18:01.177Z,8.60
2018-12-08T19:20:30.032Z,8.60
2018-12-08T19:22:58.409Z,8.70
2018-12-08T19:25:26.775Z,8.70
2018-12-08T19:27:55.125Z,8.70
2018-12-08T19:30:23.516Z,8.80
2018-12-08T19:32:51.885Z,8.80
2018-12-08T19:35:20.259Z,8.80
2018-12-08T19:37:48.620Z,8.70
2018-12-08T19:40:17.444Z,8.70
2018-12-08T19:42:45.825Z,8.70
2018-12-08T19:45:14.196Z,8.70
2018-12-08T19:47:42.583Z,8.70
2018-12-08T19:50:10.964Z,8.70
2018-12-08T19:52:39.328Z,8.70
2018-12-08T19:55:08.138Z,8.70
2018-12-08T19:57:36.853Z,8.80
2018-12-08T20:00:07.409Z,8.80
2018-12-08T20:02:35.785Z,8.80
2018-12-08T20:05:05.260Z,8.80
2018-12-08T20:07:33.624Z,8.80
2018-12-08T20:10:01.996Z,8.90
2018-12-08T20:12:30.368Z,8.90
2018-12-08T20:14:58.740Z,9.00
2018-12-08T20:17:27.096Z,9.10
2018-12-08T20:19:55.513Z,9.20
2018-12-08T20:22:23.892Z,9.20
2018-12-08T20:24:52.259Z,9.30
2018-12-08T20:27:20.636Z,9.30
2018-12-08T20:29:49.002Z,9.30
2018-12-08T20:32:17.412Z,9.30
2018-12-08T20:34:45.788Z,9.20
2018-12-08T20:37:14.157Z,9.20
2018-12-08T20:39:42.527Z,9.30
2018-12-08T20:42:10.906Z,9.30
2018-12-08T20:44:39.811Z,9.30
2018-12-08T20:47:08.185Z,9.30
2018-12-08T20:49:36.537Z,9.30
2018-12-08T20:52:04.899Z,9.30
2018-12-08T20:54:33.248Z,9.20
2018-12-08T20:57:01.618Z,9.20
2018-12-08T20:59:29.971Z,9.30
2018-12-08T21:01:58.805Z,9.20
2018-12-08T21:04:27.274Z,9.20
2018-12-08T21:06:55.649Z,9.20
2018-12-08T21:09:24.003Z,9.10
2018-12-08T21:11:52.789Z,9.20
2018-12-08T21:14:21.132Z,9.20
2018-12-08T21:16:49.496Z,9.10
2018-12-08T21:19:17.856Z,9.10
2018-12-08T21:21:46.227Z,9.10
2018-12-08T21:24:14.568Z,9.10
2018-12-08T21:26:43.492Z,9.10
2018-12-08T21:29:11.847Z,9.10
2018-12-08T21:31:40.223Z,9.10
2018-12-08T21:34:08.579Z,9.10
2018-12-08T21:36:36.967Z,9.10
2018-12-08T21:39:07.054Z,9.20
2018-12-08T21:41:35.423Z,9.20
2018-12-08T21:44:03.788Z,9.20
2018-12-08T21:46:32.146Z,9.20
2018-12-08T21:49:00.514Z,9.20
2018-12-08T21:51:28.868Z,9.30
2018-12-08T21:53:57.258Z,9.30
2018-12-08T21:56:25.615Z,9.30
2018-12-08T21:58:53.997Z,9.30
2018-12-08T22:01:22.364Z,9.30
2018-12-08T22:03:50.744Z,9.30
2018-12-08T22:06:19.113Z,9.30
2018-12-08T22:08:47.481Z,9.20
2018-12-08T22:11:15.868Z,9.20
2018-12-08T22:13:44.235Z,9.20
2018-12-08T22:16:12.605Z,9.20
2018-12-08T22:18:40.981Z,9.20
2018-12-08T22:21:09.336Z,9.10
2018-12-08T22:23:37.711Z,9.00
2018-12-08T22:26:06.763Z,9.00
2018-12-08T22:28:35.152Z,9.00
2018-12-08T22:31:03.967Z,9.00
2018-12-08T22:33:32.333Z,9.10
2018-12-08T22:36:00.692Z,9.10
2018-12-08T22:38:29.068Z,9.10
2018-12-08T22:40:57.451Z,9.10
2018-12-08T22:43:25.820Z,9.00
2018-12-08T22:45:54.171Z,9.00
2018-12-08T22:48:23.000Z,9.10
2018-12-08T22:50:51.375Z,9.20
2018-12-08T22:53:19.968Z,9.10
2018-12-08T22:55:54.673Z,9.10
2018-12-08T22:58:23.016Z,9.10
2018-12-08T23:00:53.256Z,9.10
2018-12-08T23:03:21.627Z,9.10
2018-12-08T23:05:50.008Z,9.10
2018-12-08T23:08:18.824Z,9.00
2018-12-08T23:10:47.232Z,8.90
2018-12-08T23:13:16.025Z,8.80
2018-12-08T23:15:44.967Z,8.70
2018-12-08T23:18:13.316Z,8.70
2018-12-08T23:20:41.685Z,8.70
2018-12-08T23:23:10.038Z,8.70
2018-12-08T23:25:38.417Z,8.60
2018-12-08T23:28:06.777Z,8.50
2018-12-08T23:30:35.147Z,8.40
2018-12-08T23:33:03.510Z,8.40
2018-12-08T23:35:31.873Z,8.30
2018-12-08T23:38:00.252Z,8.30
2018-12-08T23:40:28.629Z,8.30
2018-12-08T23:42:56.990Z,8.30
2018-12-08T23:45:25.380Z,8.20
2018-12-08T23:47:53.731Z,8.20
2018-12-08T23:50:22.104Z,8.30
2018-12-08T23:52:50.459Z,8.20
2018-12-08T23:55:18.846Z,8.30
2018-12-08T23:57:47.258Z,8.30
